[FoLUG] shell di linux

Silvio Lo Sciuto silviodinotte@hotmail.com
Gio 3 Apr 2014 22:02:24 CEST


Potevo usare solo script di linux bash. Abbiam risolto

Inviato da iPhone

> Il giorno 03/apr/2014, alle ore 18:21, "Enrico Placci" <e.placci@gmail.com> ha scritto:
> 
> 
>> On 2014-03-27 at 15:38:28, Silvio Lo Sciuto (silviodinotte@hotmail.com) wrote:
>> 
>> devo isolare in automatico la temperatura che  il primo numero prima dello /
>> ma non conosco quanti campi ha la stringa
> 
> Io userei perl
>  echo 200601010050 METAR LIPY 010050Z 35004KT 2500 -RA BR SCT008 BKN050 04/01 Q1011= | perl -ne '/(\d\d)\// ; print "$1\n”'
> 
> Enrico
> _______________________________________________
> FoLUG mailing list
> FoLUG@lists.linux.it
> http://lists.linux.it/listinfo/folug per cancellarsi dalla lista


Maggiori informazioni sulla lista FoLUG